Time;durP1;ratioP1;P1;durP2;ratioP2;P2;SDS_P1;SDS_P2;PMS_P1;PMS_P2;Temp;Humidity;BMP_temperature;BMP_pressure;BME280_temperature;BME280_humidity;BME280_pressure;Samples;Min_cycle;Max_cycle;Signal;HPM_P1;HPM_P2
2023/10/18 00:00:34;;;;;;;24.30;11.90;;;;;;;6.95;57.72;100500.73;108166;1253;70319;-66
2023/10/18 00:03:02;;;;;;;25.10;11.50;;;;;;;6.97;57.64;100500.35;108173;1253;73106;-65
2023/10/18 00:05:31;;;;;;;27.00;12.20;;;;;;;7.01;57.71;100492.60;108219;1253;59627;-65
2023/10/18 00:07:59;;;;;;;25.80;11.90;;;;;;;7.10;57.01;100492.98;108191;1252;60038;-65
2023/10/18 00:10:30;;;;;;;23.30;11.10;;;;;;;7.06;56.74;100494.09;108033;1254;72716;-66
2023/10/18 00:12:59;;;;;;;30.10;13.30;;;;;;;7.04;56.83;100493.42;108179;1254;70025;-65
2023/10/18 00:15:26;;;;;;;28.70;12.60;;;;;;;7.05;56.75;100491.84;108147;1254;72682;-65
2023/10/18 00:17:55;;;;;;;23.90;11.40;;;;;;;6.87;57.15;100492.13;108162;1253;60878;-65
2023/10/18 00:20:26;;;;;;;30.10;12.60;;;;;;;6.92;56.65;100490.65;108112;1254;60530;-66
2023/10/18 00:22:54;;;;;;;20.40;10.40;;;;;;;6.87;56.50;100488.48;108178;1253;73680;-65
2023/10/18 00:25:22;;;;;;;27.20;10.60;;;;;;;6.95;56.49;100486.61;108114;1254;70282;-66
2023/10/18 00:27:50;;;;;;;27.50;12.70;;;;;;;6.97;56.57;100481.67;108258;1252;72633;-66
2023/10/18 00:30:18;;;;;;;20.60;9.70;;;;;;;6.94;56.55;100479.29;108166;1254;61422;-66
2023/10/18 00:32:46;;;;;;;23.20;10.20;;;;;;;6.86;56.58;100481.85;108229;1253;60326;-66
2023/10/18 00:35:31;;;;;;;20.70;9.80;;;;;;;6.75;56.47;100476.80;108164;1253;73801;-65
2023/10/18 00:37:59;;;;;;;22.40;10.20;;;;;;;6.60;56.66;100478.25;108194;1253;69929;-66
2023/10/18 00:43:26;;;;;;;17.00;9.20;;;;;;;6.35;56.96;100485.60;108126;1252;60520;-66
2023/10/18 00:45:54;;;;;;;18.70;9.80;;;;;;;6.36;56.88;100485.05;108174;1252;60424;-66
2023/10/18 00:48:24;;;;;;;21.40;9.60;;;;;;;6.31;57.05;100479.38;108186;1254;73276;-66
2023/10/18 00:50:52;;;;;;;22.10;10.20;;;;;;;6.35;56.88;100476.70;108179;1253;70135;-64
2023/10/18 00:53:21;;;;;;;21.90;10.00;;;;;;;6.26;57.16;100474.02;108085;1254;71683;-65
2023/10/18 00:55:57;;;;;;;20.10;9.70;;;;;;;6.16;57.24;100469.98;108164;1254;60860;-66
2023/10/18 00:58:29;;;;;;;16.30;8.50;;;;;;;6.05;57.71;100468.20;108184;1254;60309;-64
2023/10/18 01:00:59;;;;;;;16.00;9.00;;;;;;;5.88;57.92;100461.23;108131;1252;71840;-66
2023/10/18 01:03:32;;;;;;;17.30;9.50;;;;;;;5.65;58.73;100462.73;108168;1254;70285;-67
2023/10/18 01:06:04;;;;;;;22.50;9.00;;;;;;;5.74;58.69;100462.12;108182;1253;71415;-66
2023/10/18 01:08:32;;;;;;;19.00;9.90;;;;;;;5.75;58.76;100466.81;108114;1252;60875;-66
2023/10/18 01:11:07;;;;;;;22.20;9.60;;;;;;;5.84;58.66;100466.70;108155;1252;58994;-66
2023/10/18 01:13:37;;;;;;;17.70;9.00;;;;;;;5.74;58.81;100464.72;108113;1253;73840;-65
2023/10/18 01:16:14;;;;;;;19.30;9.10;;;;;;;5.65;59.16;100470.25;108124;1253;70414;-66
2023/10/18 01:18:47;;;;;;;19.50;9.60;;;;;;;5.44;59.94;100475.86;108097;1253;70881;-66
2023/10/18 01:21:21;;;;;;;21.60;10.80;;;;;;;5.65;60.14;100475.63;108138;1252;59749;-65
2023/10/18 01:23:51;;;;;;;25.00;10.90;;;;;;;6.01;59.55;100471.91;108280;1253;60316;-67
2023/10/18 01:26:19;;;;;;;21.00;11.20;;;;;;;5.90;60.77;100472.20;108225;1254;73798;-66
2023/10/18 01:28:48;;;;;;;22.90;11.20;;;;;;;6.12;60.53;100473.35;108135;1253;68921;-65
2023/10/18 01:31:15;;;;;;;22.70;11.00;;;;;;;6.20;60.73;100473.23;108261;1254;73119;-66
2023/10/18 01:33:44;;;;;;;22.20;10.50;;;;;;;6.52;60.29;100469.30;108125;1253;60848;-66
2023/10/18 01:36:14;;;;;;;19.60;10.30;;;;;;;6.68;59.59;100466.96;108101;1253;60522;-65
2023/10/18 01:38:46;;;;;;;22.30;11.10;;;;;;;6.74;59.56;100466.86;108148;1254;73952;-65
2023/10/18 01:41:25;;;;;;;24.00;11.60;;;;;;;6.63;60.18;100466.16;108192;1251;69183;-65
2023/10/18 01:44:05;;;;;;;17.70;10.20;;;;;;;6.65;60.46;100464.91;108238;1251;73018;-66
2023/10/18 01:46:45;;;;;;;18.70;9.60;;;;;;;6.81;60.39;100467.98;108138;1257;60249;-66
2023/10/18 01:49:16;;;;;;;22.50;10.00;;;;;;;7.19;59.54;100462.79;108258;1251;59362;-66
2023/10/18 01:51:50;;;;;;;19.40;10.30;;;;;;;7.15;59.44;100465.48;108251;1251;71891;-65
2023/10/18 01:54:25;;;;;;;20.40;11.00;;;;;;;7.23;59.50;100460.10;108280;1251;70420;-65
2023/10/18 01:56:53;;;;;;;25.00;11.60;;;;;;;7.21;59.54;100462.39;108318;1251;71262;-65
2023/10/18 01:59:30;;;;;;;25.40;11.70;;;;;;;7.22;59.36;100463.60;108269;1251;60306;-65
2023/10/18 02:01:57;;;;;;;19.20;10.00;;;;;;;7.35;58.93;100460.05;108243;1251;60213;-65
2023/10/18 02:04:31;;;;;;;24.50;11.50;;;;;;;7.25;59.09;100463.04;108378;1251;73851;-67
2023/10/18 02:07:19;;;;;;;23.40;10.80;;;;;;;7.56;58.22;100461.42;108319;1251;68982;-65
2023/10/18 02:09:52;;;;;;;22.50;11.30;;;;;;;7.59;58.46;100455.23;108187;1251;72927;-66
2023/10/18 02:12:20;;;;;;;19.10;10.10;;;;;;;7.65;58.16;100455.46;108319;1251;60431;-66
2023/10/18 02:14:48;;;;;;;21.20;11.00;;;;;;;7.66;58.07;100452.47;108216;1251;59991;-63
2023/10/18 02:17:18;;;;;;;21.10;11.10;;;;;;;7.71;57.86;100447.83;108354;1251;73801;-65
2023/10/18 02:19:46;;;;;;;23.40;10.40;;;;;;;7.67;57.73;100449.13;108298;1256;69493;-64
2023/10/18 02:22:16;;;;;;;18.80;10.80;;;;;;;7.70;57.65;100447.13;108317;1251;72485;-65
2023/10/18 02:24:44;;;;;;;23.90;11.20;;;;;;;7.75;57.52;100446.54;108299;1253;60818;-66
2023/10/18 02:27:19;;;;;;;21.50;10.10;;;;;;;7.79;57.41;100445.40;108365;1251;60194;-66
2023/10/18 02:29:47;;;;;;;25.10;11.30;;;;;;;7.81;57.35;100441.51;108350;1251;73831;-67
2023/10/18 02:32:32;;;;;;;21.80;11.10;;;;;;;7.75;57.64;100445.47;108358;1251;70539;-64
2023/10/18 02:35:04;;;;;;;23.70;11.50;;;;;;;7.86;57.22;100444.74;108347;1256;70187;-64
2023/10/18 02:37:32;;;;;;;18.80;10.60;;;;;;;7.84;57.53;100445.30;108291;1251;60875;-64
2023/10/18 02:40:09;;;;;;;19.20;10.50;;;;;;;7.87;57.46;100442.44;108309;1251;60424;-65
2023/10/18 02:42:37;;;;;;;22.80;11.30;;;;;;;7.91;57.36;100442.34;108233;1251;71620;-65
2023/10/18 02:45:12;;;;;;;22.80;10.50;;;;;;;8.02;57.23;100442.83;108291;1251;69193;-64
2023/10/18 02:47:41;;;;;;;21.90;11.10;;;;;;;8.09;56.98;100441.79;108250;1254;71117;-65
2023/10/18 02:50:09;;;;;;;22.40;11.70;;;;;;;8.04;57.20;100437.70;108382;1251;60195;-64
2023/10/18 02:52:36;;;;;;;20.90;11.30;;;;;;;8.07;57.23;100436.42;108300;1251;60427;-67
2023/10/18 02:55:08;;;;;;;23.00;11.90;;;;;;;8.05;57.33;100435.23;108276;1251;73778;-66
2023/10/18 02:57:36;;;;;;;19.70;11.40;;;;;;;7.96;57.77;100435.45;108217;1251;71698;-65
2023/10/18 03:00:10;;;;;;;22.90;11.40;;;;;;;8.05;57.48;100434.35;108288;1251;70715;-66
2023/10/18 03:02:38;;;;;;;22.80;12.00;;;;;;;8.06;57.26;100434.69;108245;1251;60316;-65
2023/10/18 03:05:07;;;;;;;23.50;11.90;;;;;;;7.99;57.42;100430.12;108332;1256;60438;-65
2023/10/18 03:07:35;;;;;;;27.50;12.60;;;;;;;8.04;56.87;100426.33;108327;1251;73766;-65
2023/10/18 03:10:12;;;;;;;24.10;13.10;;;;;;;8.04;57.00;100424.95;108258;1251;70065;-66
2023/10/18 03:12:44;;;;;;;26.30;13.10;;;;;;;7.73;57.74;100427.17;108123;1259;72898;-66
2023/10/18 03:15:20;;;;;;;20.90;11.20;;;;;;;7.59;58.07;100428.84;108321;1254;60277;-66
2023/10/18 03:17:49;;;;;;;23.50;12.70;;;;;;;7.85;57.61;100430.58;108302;1251;60174;-65
2023/10/18 03:20:23;;;;;;;26.10;12.60;;;;;;;8.00;57.19;100430.45;108308;1251;74328;-66
2023/10/18 03:22:52;;;;;;;27.80;14.10;;;;;;;7.86;57.72;100426.73;108353;1251;70305;-66
2023/10/18 03:25:31;;;;;;;35.70;16.30;;;;;;;7.98;57.55;100424.73;108307;1251;71417;-65
2023/10/18 03:28:04;;;;;;;43.30;20.60;;;;;;;8.00;57.25;100421.35;108320;1252;60868;-65
2023/10/18 03:33:12;;;;;;;35.10;19.30;;;;;;;7.93;57.41;100422.55;108333;1251;72636;-66
2023/10/18 03:35:41;;;;;;;35.10;17.40;;;;;;;7.90;57.49;100427.86;108278;1251;70502;-65
2023/10/18 03:38:30;;;;;;;30.10;16.10;;;;;;;7.78;57.69;100426.36;108322;1257;72967;-66
2023/10/18 03:40:57;;;;;;;33.20;17.50;;;;;;;7.84;57.66;100428.52;108232;1251;59907;-66
2023/10/18 03:43:32;;;;;;;25.90;14.20;;;;;;;7.91;57.54;100428.88;108121;1254;60062;-66
2023/10/18 03:46:13;;;;;;;32.50;16.00;;;;;;;7.79;57.76;100429.33;108141;1254;71608;-66
2023/10/18 03:48:45;;;;;;;41.40;17.60;;;;;;;7.81;57.65;100429.10;108089;1253;68860;-65
2023/10/18 03:51:19;;;;;;;32.60;16.10;;;;;;;7.72;57.63;100429.45;108150;1253;72488;-66
2023/10/18 03:53:56;;;;;;;34.60;17.70;;;;;;;7.71;57.63;100422.84;108151;1257;60262;-65
2023/10/18 03:56:23;;;;;;;33.70;17.40;;;;;;;7.64;57.59;100420.88;108036;1254;60281;-66
2023/10/18 03:59:00;;;;;;;29.50;17.20;;;;;;;7.58;57.74;100425.55;108136;1258;73782;-66
2023/10/18 04:01:28;;;;;;;38.90;20.60;;;;;;;7.51;58.05;100426.73;108163;1253;70150;-66
2023/10/18 04:03:56;;;;;;;34.30;17.90;;;;;;;7.45;57.92;100425.63;108099;1254;72709;-66
2023/10/18 04:06:35;;;;;;;30.70;16.50;;;;;;;7.39;58.11;100428.02;108104;1252;61124;-65
2023/10/18 04:09:16;;;;;;;39.30;20.00;;;;;;;7.32;58.22;100424.31;108268;1252;60309;-66
2023/10/18 04:11:43;;;;;;;;;;;;;;;7.31;58.03;100428.17;108172;1254;73817;-65
2023/10/18 04:14:16;;;;;;;66.50;33.60;;;;;;;7.26;58.13;100431.05;108179;1254;70278;-65
2023/10/18 04:16:47;;;;;;;61.10;31.60;;;;;;;7.22;58.06;100432.17;108200;1254;71449;-67
2023/10/18 04:19:19;;;;;;;42.90;23.20;;;;;;;7.17;58.02;100430.34;108174;1254;61828;-65
2023/10/18 04:21:52;;;;;;;41.10;20.50;;;;;;;7.08;58.36;100428.95;108206;1256;59468;-66
2023/10/18 04:24:28;;;;;;;43.80;20.70;;;;;;;7.08;58.11;100427.71;108183;1254;73821;-66
2023/10/18 04:26:56;;;;;;;37.30;19.70;;;;;;;7.02;58.21;100425.73;108183;1252;68631;-66
2023/10/18 04:29:26;;;;;;;39.70;18.50;;;;;;;6.97;58.30;100430.70;108141;1252;72788;-66
2023/10/18 04:31:56;;;;;;;37.60;17.20;;;;;;;6.92;58.38;100434.11;108146;1254;60860;-66
2023/10/18 04:34:29;;;;;;;34.80;18.50;;;;;;;6.96;58.46;100434.05;108170;1254;61012;-66
2023/10/18 04:36:58;;;;;;;49.70;21.30;;;;;;;6.96;58.71;100437.36;108211;1253;73550;-66
2023/10/18 04:39:28;;;;;;;33.90;18.90;;;;;;;6.92;58.66;100439.33;108261;1256;70908;-66
2023/10/18 04:41:56;;;;;;;30.50;16.80;;;;;;;6.88;58.93;100436.45;108262;1252;73081;-66
2023/10/18 04:44:24;;;;;;;35.20;17.90;;;;;;;6.89;59.04;100435.55;108299;1254;60843;-66
2023/10/18 04:46:52;;;;;;;31.40;17.40;;;;;;;6.97;58.87;100430.70;108282;1251;59932;-66
2023/10/18 04:49:36;;;;;;;41.20;19.40;;;;;;;6.94;59.10;100434.05;108281;1251;72937;-66
2023/10/18 04:52:08;;;;;;;37.80;18.80;;;;;;;7.02;59.10;100433.60;108317;1251;70156;-66
2023/10/18 04:54:38;;;;;;;35.80;18.60;;;;;;;7.04;59.21;100433.20;108253;1251;72700;-66
2023/10/18 04:57:10;;;;;;;38.40;20.10;;;;;;;7.06;59.41;100431.24;108292;1254;62896;-66
2023/10/18 04:59:48;;;;;;;38.70;19.50;;;;;;;7.08;59.45;100428.77;108228;1251;60277;-66
2023/10/18 05:02:25;;;;;;;37.90;19.30;;;;;;;7.16;59.49;100425.99;108372;1251;73748;-66
2023/10/18 05:04:55;;;;;;;43.10;20.90;;;;;;;7.29;59.34;100426.10;108336;1251;70548;-66
2023/10/18 05:07:38;;;;;;;38.70;19.30;;;;;;;7.24;59.28;100427.61;108272;1251;71453;-66
2023/10/18 05:10:16;;;;;;;34.90;18.90;;;;;;;7.22;59.55;100431.31;108348;1251;60765;-66
2023/10/18 05:15:31;;;;;;;41.60;19.00;;;;;;;7.30;59.35;100434.48;108342;1251;73953;-66
2023/10/18 05:18:23;;;;;;;36.30;18.90;;;;;;;7.37;59.40;100434.86;108312;1251;70128;-66
2023/10/18 05:20:47;;;;;;;51.40;22.70;;;;;;;7.38;59.53;100436.08;108320;1251;72622;-66
2023/10/18 05:23:27;;;;;;;44.50;21.80;;;;;;;7.49;59.41;100439.52;108280;1252;60830;-67
2023/10/18 05:26:08;;;;;;;46.30;23.20;;;;;;;7.56;59.37;100441.84;108285;1251;60510;-66
2023/10/18 05:28:47;;;;;;;48.60;23.40;;;;;;;7.71;59.27;100446.77;108357;1251;73793;-66
2023/10/18 05:34:02;;;;;;;39.70;20.40;;;;;;;8.06;59.38;100447.80;108255;1251;71790;-65
2023/10/18 05:36:30;;;;;;;51.10;24.40;;;;;;;8.15;59.33;100446.73;108282;1251;60232;-64
2023/10/18 05:41:49;;;;;;;41.80;20.90;;;;;;;8.64;58.85;100441.10;108259;1254;72935;-65
2023/10/18 05:44:17;;;;;;;46.20;23.80;;;;;;;8.75;58.57;100446.07;108212;1254;70290;-64
2023/10/18 05:46:46;;;;;;;45.80;22.80;;;;;;;8.94;57.40;100445.25;108244;1253;70860;-66
2023/10/18 05:49:14;;;;;;;51.10;25.20;;;;;;;9.16;56.90;100448.89;108200;1253;63046;-65
2023/10/18 05:51:58;;;;;;;44.80;24.60;;;;;;;9.23;56.52;100447.14;108208;1254;60319;-66
2023/10/18 05:54:28;;;;;;;52.60;23.90;;;;;;;9.29;55.51;100440.84;108225;1254;73085;-67
2023/10/18 05:56:56;;;;;;;55.50;24.60;;;;;;;9.43;55.43;100444.85;108195;1252;72146;-65
2023/10/18 05:59:33;;;;;;;45.00;21.70;;;;;;;9.54;55.31;100447.90;108207;1254;72554;-65
2023/10/18 06:02:01;;;;;;;36.50;19.30;;;;;;;9.53;54.53;100444.77;108172;1254;60195;-65
2023/10/18 06:04:37;;;;;;;40.70;22.40;;;;;;;9.50;54.79;100448.36;108165;1254;60399;-67
2023/10/18 06:07:09;;;;;;;32.60;18.40;;;;;;;9.33;55.04;100447.05;108120;1254;72698;-66
2023/10/18 06:09:47;;;;;;;44.40;20.80;;;;;;;9.59;55.02;100447.58;108148;1253;70022;-66
2023/10/18 06:12:21;;;;;;;46.80;23.20;;;;;;;9.69;54.99;100451.48;108125;1254;72678;-68
2023/10/18 06:14:52;;;;;;;45.90;21.30;;;;;;;9.90;54.75;100447.91;108283;1253;60946;-67
2023/10/18 06:17:22;;;;;;;47.40;25.00;;;;;;;10.07;54.63;100448.11;108217;1253;59016;-66
2023/10/18 06:19:50;;;;;;;54.30;27.40;;;;;;;10.38;54.77;100444.39;108151;1253;73841;-66
2023/10/18 06:22:28;;;;;;;46.70;24.70;;;;;;;10.84;54.25;100438.70;108174;1254;70123;-66
2023/10/18 06:24:57;;;;;;;52.30;26.70;;;;;;;11.19;53.40;100439.63;108166;1254;71360;-66
2023/10/18 06:27:25;;;;;;;46.80;25.10;;;;;;;11.43;52.24;100435.44;108165;1253;60391;-68
2023/10/18 06:29:53;;;;;;;40.30;21.20;;;;;;;11.60;51.34;100437.66;108142;1252;60437;-65
2023/10/18 06:32:25;;;;;;;46.70;24.80;;;;;;;11.63;50.94;100439.98;108128;1254;73878;-66
2023/10/18 06:34:56;;;;;;;38.10;21.30;;;;;;;11.76;50.66;100440.60;108165;1254;68895;-66
2023/10/18 06:37:24;;;;;;;40.60;21.40;;;;;;;11.99;50.30;100438.55;108142;1254;72713;-66
2023/10/18 06:39:55;;;;;;;43.00;23.30;;;;;;;12.07;49.89;100438.58;108071;1254;60933;-65
2023/10/18 06:42:26;;;;;;;47.70;22.50;;;;;;;12.22;49.27;100435.73;108141;1251;60392;-66
2023/10/18 06:44:55;;;;;;;46.70;23.70;;;;;;;12.34;49.46;100430.67;108311;1256;73805;-66
2023/10/18 06:47:31;;;;;;;39.00;20.90;;;;;;;12.42;48.98;100431.59;108289;1251;69494;-66
2023/10/18 06:50:00;;;;;;;39.00;21.80;;;;;;;12.28;48.70;100429.51;108318;1257;71401;-65
2023/10/18 06:52:45;;;;;;;44.50;23.50;;;;;;;12.28;48.95;100428.45;108319;1252;60824;-66
2023/10/18 06:55:16;;;;;;;41.00;22.40;;;;;;;12.60;48.25;100424.35;108279;1251;60564;-66
2023/10/18 06:57:46;;;;;;;40.50;21.60;;;;;;;12.97;47.96;100424.05;108355;1251;72601;-66
2023/10/18 07:00:17;;;;;;;44.00;23.10;;;;;;;13.33;47.59;100421.81;108298;1251;69317;-67
2023/10/18 07:02:44;;;;;;;40.20;21.30;;;;;;;13.74;46.43;100420.02;108297;1251;71396;-66
2023/10/18 07:05:12;;;;;;;40.80;20.50;;;;;;;14.38;45.77;100420.35;108301;1254;60607;-67
2023/10/18 07:07:41;;;;;;;35.30;20.40;;;;;;;14.63;45.32;100412.11;108316;1251;60280;-66
2023/10/18 07:10:20;;;;;;;33.90;19.50;;;;;;;14.76;44.07;100410.25;108275;1251;73875;-66
2023/10/18 07:12:52;;;;;;;33.90;18.70;;;;;;;15.17;43.47;100402.52;108308;1251;70453;-66
2023/10/18 07:15:22;;;;;;;32.50;17.60;;;;;;;15.23;43.25;100397.75;108294;1252;72900;-67
2023/10/18 07:17:52;;;;;;;36.10;17.40;;;;;;;15.33;42.73;100398.65;108282;1251;60564;-67
2023/10/18 07:20:21;;;;;;;33.60;18.70;;;;;;;15.54;42.63;100395.43;108324;1257;60497;-66
2023/10/18 07:22:55;;;;;;;28.80;17.10;;;;;;;15.70;41.74;100396.16;108276;1257;73885;-66
2023/10/18 07:25:26;;;;;;;31.80;18.30;;;;;;;15.64;41.55;100392.05;108337;1256;69213;-66
2023/10/18 07:27:57;;;;;;;38.40;18.60;;;;;;;15.72;41.49;100392.73;108241;1255;71668;-66
2023/10/18 07:30:37;;;;;;;31.80;17.00;;;;;;;16.08;41.01;100393.77;108339;1254;60296;-66
2023/10/18 07:33:09;;;;;;;38.50;17.50;;;;;;;16.76;40.19;100389.20;108367;1256;60395;-67
2023/10/18 07:35:44;;;;;;;33.80;17.90;;;;;;;17.49;39.12;100392.81;108400;1251;73805;-68
2023/10/18 07:38:11;;;;;;;29.60;16.30;;;;;;;18.02;38.19;100384.70;108392;1251;70746;-66
2023/10/18 07:40:42;;;;;;;36.90;17.50;;;;;;;18.67;36.83;100383.85;108324;1257;72603;-68
2023/10/18 07:43:12;;;;;;;30.90;15.90;;;;;;;19.15;35.70;100375.14;108358;1252;60478;-68
2023/10/18 07:45:40;;;;;;;;;;;;;;;19.62;34.62;100370.42;108331;1251;60316;-67
2023/10/18 07:48:11;;;;;;;28.00;14.00;;;;;;;20.18;34.27;100364.66;108286;1251;73677;-67
2023/10/18 07:53:06;;;;;;;27.40;14.50;;;;;;;20.70;33.09;100356.55;108271;1254;72605;-67
2023/10/18 07:55:36;;;;;;;29.60;13.00;;;;;;;20.93;32.51;100354.03;108255;1256;60433;-66
2023/10/18 08:03:31;;;;;;;18.20;10.80;;;;;;;20.87;32.02;100352.93;108257;1251;70128;-66
2023/10/18 08:06:05;;;;;;;22.80;10.10;;;;;;;20.45;32.16;100353.92;108289;1253;72809;-67
2023/10/18 08:08:35;;;;;;;13.10;8.20;;;;;;;19.89;32.47;100352.14;108286;1256;60340;-66
2023/10/18 08:11:06;;;;;;;16.20;8.50;;;;;;;19.43;33.04;100349.73;108374;1251;60410;-67
2023/10/18 08:13:39;;;;;;;14.90;8.70;;;;;;;18.94;33.63;100351.83;108332;1251;73196;-67
2023/10/18 08:16:10;;;;;;;16.60;8.20;;;;;;;18.83;33.90;100348.13;108393;1255;70124;-66
2023/10/18 08:18:44;;;;;;;15.00;8.10;;;;;;;19.11;33.61;100344.60;108366;1251;74324;-66
2023/10/18 08:24:08;;;;;;;16.20;9.10;;;;;;;18.87;34.45;100344.48;104965;1289;600927;-67
2023/10/18 08:26:48;;;;;;;17.40;7.70;;;;;;;20.00;32.23;100337.14;108150;1253;60146;-67
2023/10/18 08:29:16;;;;;;;15.30;7.60;;;;;;;20.45;31.74;100333.63;108170;1252;60467;-67
2023/10/18 08:31:55;;;;;;;15.60;7.80;;;;;;;20.59;31.63;100331.30;108055;1253;71919;-66
2023/10/18 08:34:23;;;;;;;15.90;8.30;;;;;;;20.93;30.86;100326.27;107994;1253;70377;-67
2023/10/18 08:37:01;;;;;;;12.80;7.00;;;;;;;21.37;30.15;100329.25;107891;1259;221901;-65
2023/10/18 08:39:29;;;;;;;16.90;7.00;;;;;;;21.43;29.40;100326.83;108324;1250;60009;-65
2023/10/18 08:42:08;;;;;;;15.60;7.30;;;;;;;21.30;29.54;100329.25;108223;1256;60039;-65
2023/10/18 08:44:36;;;;;;;14.60;6.30;;;;;;;21.04;29.79;100321.45;108217;1257;72287;-67
2023/10/18 08:49:56;;;;;;;12.90;6.60;;;;;;;21.33;29.78;100325.98;108204;1253;72251;-66
2023/10/18 08:52:24;;;;;;;15.70;6.20;;;;;;;21.44;28.92;100324.01;108016;1253;59472;-66
2023/10/18 08:54:52;;;;;;;11.80;5.40;;;;;;;21.56;29.02;100320.06;108085;1251;62322;-66
2023/10/18 08:57:34;;;;;;;11.00;5.30;;;;;;;21.93;28.37;100318.48;108188;1252;72162;-67
2023/10/18 09:02:52;;;;;;;11.30;4.90;;;;;;;22.38;27.33;100313.62;108166;1253;71374;-66
2023/10/18 09:05:22;;;;;;;7.20;4.00;;;;;;;22.51;27.29;100311.45;108254;1253;59597;-67
2023/10/18 09:07:53;;;;;;;9.30;4.40;;;;;;;22.87;27.18;100307.32;108191;1257;59512;-67
2023/10/18 09:15:54;;;;;;;8.30;4.00;;;;;;;23.85;25.47;100283.52;108221;1257;71364;-66
2023/10/18 09:18:31;;;;;;;10.70;4.70;;;;;;;23.73;25.20;100281.73;108187;1253;60233;-67
2023/10/18 09:21:17;;;;;;;9.40;4.00;;;;;;;23.43;25.25;100276.66;108062;1251;60449;-67
2023/10/18 09:23:49;;;;;;;8.60;4.40;;;;;;;23.15;25.66;100274.65;108238;1253;73416;-67
2023/10/18 09:26:26;;;;;;;9.20;4.30;;;;;;;23.34;25.88;100267.08;108076;1251;70464;-68
2023/10/18 09:28:55;;;;;;;7.30;3.90;;;;;;;23.56;25.68;100261.91;108276;1251;73017;-68
2023/10/18 09:31:22;;;;;;;10.70;4.00;;;;;;;23.27;25.23;100262.30;108271;1251;59608;-67
2023/10/18 09:33:56;;;;;;;8.20;4.20;;;;;;;22.81;25.63;100268.81;108160;1252;59656;-67
2023/10/18 09:36:24;;;;;;;10.10;4.00;;;;;;;22.43;26.05;100268.44;107994;1251;73055;-66
2023/10/18 09:38:53;;;;;;;11.20;4.40;;;;;;;21.88;26.67;100260.82;108025;1253;71404;-67
2023/10/18 09:41:21;;;;;;;7.90;4.40;;;;;;;21.64;26.46;100265.16;108132;1252;71457;-67
2023/10/18 09:43:48;;;;;;;9.60;3.70;;;;;;;21.32;27.20;100261.75;107960;1253;59489;-67
2023/10/18 09:46:16;;;;;;;6.50;3.60;;;;;;;20.84;27.84;100258.05;108082;1252;59541;-66
2023/10/18 09:48:47;;;;;;;9.30;4.30;;;;;;;20.51;28.49;100254.16;108065;1253;71799;-66
2023/10/18 09:51:15;;;;;;;9.00;4.10;;;;;;;20.15;28.78;100253.81;108161;1253;69508;-66
2023/10/18 09:53:50;;;;;;;7.10;3.50;;;;;;;19.81;29.36;100246.36;108127;1253;71407;-66
2023/10/18 09:56:26;;;;;;;8.80;4.20;;;;;;;19.36;29.92;100244.98;108128;1253;60586;-66
2023/10/18 09:59:11;;;;;;;7.70;4.50;;;;;;;19.07;30.49;100245.98;108063;1253;59989;-66
2023/10/18 10:04:14;;;;;;;8.20;4.40;;;;;;;18.88;30.69;100237.70;108007;1253;71250;-66
2023/10/18 10:06:46;;;;;;;12.40;4.30;;;;;;;18.73;30.53;100235.53;108134;1253;71515;-66
2023/10/18 10:09:14;;;;;;;9.80;4.30;;;;;;;18.76;30.09;100233.73;108003;1252;59567;-66
2023/10/18 10:11:45;;;;;;;8.20;3.80;;;;;;;18.62;30.12;100229.27;108065;1253;60068;-66
2023/10/18 10:14:17;;;;;;;10.00;4.00;;;;;;;18.46;29.83;100223.13;108049;1256;73468;-66
2023/10/18 10:16:54;;;;;;;9.00;3.30;;;;;;;18.26;30.52;100223.80;108072;1253;70484;-67
2023/10/18 10:19:28;;;;;;;7.50;3.90;;;;;;;18.12;30.84;100227.23;108031;1253;71760;-66
2023/10/18 10:22:06;;;;;;;7.60;3.30;;;;;;;17.99;30.89;100223.61;108104;1252;60049;-66
2023/10/18 10:24:43;;;;;;;5.70;3.50;;;;;;;18.00;31.31;100215.77;108051;1252;60300;-66
2023/10/18 10:30:03;;;;;;;7.50;3.90;;;;;;;17.99;31.13;100206.80;108127;1253;70182;-66
2023/10/18 10:32:31;;;;;;;6.80;3.50;;;;;;;17.98;32.05;100201.17;108075;1253;72656;-66
2023/10/18 10:35:11;;;;;;;9.30;3.90;;;;;;;18.08;31.48;100204.20;108120;1254;60117;-66
2023/10/18 10:37:51;;;;;;;6.40;3.60;;;;;;;17.87;31.16;100196.70;108158;1253;60332;-66
2023/10/18 10:40:35;;;;;;;6.90;3.20;;;;;;;17.56;30.95;100196.05;108134;1253;71710;-66
2023/10/18 10:43:04;;;;;;;12.00;3.60;;;;;;;17.34;31.46;100195.13;108209;1253;70291;-66
2023/10/18 10:45:35;;;;;;;7.30;3.60;;;;;;;17.27;31.46;100196.66;108223;1253;70805;-66
2023/10/18 10:48:15;;;;;;;6.80;3.00;;;;;;;17.25;31.94;100190.39;108209;1252;62147;-66
2023/10/18 10:50:45;;;;;;;7.80;3.60;;;;;;;17.27;31.56;100184.77;108243;1254;60141;-66
2023/10/18 10:53:15;;;;;;;7.70;3.50;;;;;;;17.21;31.36;100186.45;108225;1251;73129;-66
2023/10/18 10:55:43;;;;;;;8.70;3.30;;;;;;;17.22;31.94;100187.04;107954;1251;69303;-65
2023/10/18 10:58:17;;;;;;;6.30;3.30;;;;;;;17.27;31.33;100183.02;108181;1253;72654;-66
2023/10/18 11:01:05;;;;;;;7.30;3.00;;;;;;;17.29;31.72;100175.61;108258;1253;59590;-67
2023/10/18 11:03:54;;;;;;;4.60;3.10;;;;;;;16.91;31.44;100177.45;108179;1253;59504;-66
2023/10/18 11:06:32;;;;;;;7.60;3.60;;;;;;;16.66;31.75;100178.80;108236;1251;73527;-66
2023/10/18 11:09:00;;;;;;;5.20;3.10;;;;;;;16.67;32.18;100173.80;108212;1257;69529;-66
2023/10/18 11:11:27;;;;;;;7.60;3.50;;;;;;;16.67;32.27;100170.58;108168;1257;73136;-66
2023/10/18 11:13:54;;;;;;;5.90;3.10;;;;;;;16.57;32.00;100174.02;107961;1252;60362;-66
2023/10/18 11:16:22;;;;;;;6.60;3.80;;;;;;;16.55;31.99;100172.77;108019;1252;60028;-66
2023/10/18 11:18:52;;;;;;;5.80;3.40;;;;;;;16.73;31.83;100167.79;108203;1254;74007;-66
2023/10/18 11:21:29;;;;;;;10.30;3.40;;;;;;;16.80;31.90;100168.20;108196;1251;68895;-66
2023/10/18 11:24:11;;;;;;;6.20;3.60;;;;;;;16.90;32.37;100165.47;108017;1252;72683;-66
2023/10/18 11:26:41;;;;;;;9.80;4.00;;;;;;;16.82;32.22;100164.02;108131;1254;59503;-66
2023/10/18 11:29:08;;;;;;;7.30;4.20;;;;;;;16.88;32.38;100162.42;108156;1253;60032;-66
2023/10/18 11:31:41;;;;;;;7.80;3.80;;;;;;;16.82;32.75;100156.77;108152;1256;72142;-66
2023/10/18 11:34:14;;;;;;;9.40;4.50;;;;;;;16.72;31.85;100152.20;108215;1257;71901;-66
2023/10/18 11:36:42;;;;;;;8.20;4.30;;;;;;;16.65;32.23;100147.35;108249;1253;72732;-66
2023/10/18 11:41:49;;;;;;;9.30;4.10;;;;;;;16.56;31.91;100148.95;108097;1253;61276;-67
2023/10/18 11:44:32;;;;;;;8.70;4.80;;;;;;;16.36;31.98;100145.21;108033;1252;72362;-66
2023/10/18 11:47:03;;;;;;;8.80;4.60;;;;;;;16.36;31.85;100144.48;108074;1260;70226;-66
2023/10/18 11:49:41;;;;;;;9.40;5.50;;;;;;;16.46;32.02;100142.33;108148;1253;72707;-66
2023/10/18 11:52:16;;;;;;;11.80;4.90;;;;;;;16.06;32.61;100135.29;108089;1253;60098;-66
2023/10/18 11:54:44;;;;;;;10.80;4.80;;;;;;;15.94;32.86;100132.48;107989;1253;60291;-66
2023/10/18 11:57:38;;;;;;;12.30;4.60;;;;;;;15.97;33.27;100131.45;108123;1252;74807;-66
2023/10/18 12:00:26;;;;;;;10.40;4.80;;;;;;;16.00;33.63;100128.08;108126;1253;72087;-66
2023/10/18 12:02:54;;;;;;;10.40;5.40;;;;;;;16.15;33.46;100128.42;108105;1254;71392;-67
2023/10/18 12:05:27;;;;;;;7.30;4.70;;;;;;;16.38;33.31;100120.27;108113;1252;60099;-67
2023/10/18 12:08:05;;;;;;;10.40;5.10;;;;;;;16.37;33.05;100111.11;108054;1259;59990;-67
2023/10/18 12:10:36;;;;;;;8.50;5.10;;;;;;;16.19;33.10;100111.87;108122;1254;71885;-67
2023/10/18 12:13:06;;;;;;;8.10;5.00;;;;;;;16.20;33.13;100109.52;108096;1253;72201;-66
2023/10/18 12:15:34;;;;;;;10.50;5.50;;;;;;;16.29;33.41;100104.69;108071;1255;72656;-66
2023/10/18 12:18:04;;;;;;;10.60;5.10;;;;;;;16.19;33.03;100104.81;108110;1253;60003;-66